sensor_id;sensor_type;location;lat;lon;timestamp;pressure;altitude;pressure_sealevel;temperature;humidity
55858;BME280;41779;52.360;31.026;2024-03-02T17:54:23;1034.1;;;10.2;60.2
55858;BME280;41779;52.360;31.026;2024-03-02T17:59:37;1032.3;;;8.9;38.5
55858;BME280;41779;52.360;31.026;2024-03-02T18:05:09;1032.3;;;8.8;39
55858;BME280;41779;52.360;31.026;2024-03-02T18:09:23;1032.3;;;8.8;39
55858;BME280;41779;52.360;31.026;2024-03-02T18:15:09;1032.3;;;8.6;39.4
55858;BME280;41779;52.360;31.026;2024-03-02T18:19:57;1032.3;;;8.6;39.4
55858;BME280;41779;52.360;31.026;2024-03-02T18:24:59;1032.3;;;8.6;39.8
55858;BME280;41779;52.360;31.026;2024-03-02T18:29:39;1032.3;;;8.6;39.6
55858;BME280;41779;52.360;31.026;2024-03-02T18:34:41;1032.3;;;8.5;39.6
55858;BME280;41779;52.360;31.026;2024-03-02T18:40:09;1032.2;;;8.4;40.3
55858;BME280;41779;52.360;31.026;2024-03-02T18:45:09;1032.2;;;8.4;40.1
55858;BME280;41779;52.360;31.026;2024-03-02T18:49:42;1032.2;;;8.4;40.1
55858;BME280;41779;52.360;31.026;2024-03-02T18:55:09;1032.2;;;8.2;41
55858;BME280;41779;52.360;31.026;2024-03-02T18:59:49;1032.2;;;8.2;41
55858;BME280;41779;52.360;31.026;2024-03-02T19:04:55;1032.2;;;8.1;40.9
55858;BME280;41779;52.360;31.026;2024-03-02T19:10:09;1032.2;;;7.9;41.8
55858;BME280;41779;52.360;31.026;2024-03-02T19:14:29;1032.2;;;7.9;41.8
55858;BME280;41779;52.360;31.026;2024-03-02T19:19:23;1032.2;;;7.9;42
55858;BME280;41779;52.360;31.026;2024-03-02T19:24:29;1032.2;;;7.9;41.7
55858;BME280;41779;52.360;31.026;2024-03-02T19:29:23;1032.2;;;7.9;42.1
55858;BME280;41779;52.360;31.026;2024-03-02T19:34:29;1032.2;;;7.7;42.8
55858;BME280;41779;52.360;31.026;2024-03-02T19:39:39;1032.2;;;7.6;42.6
55858;BME280;41779;52.360;31.026;2024-03-02T19:44:23;1032.2;;;7.6;42.7
55858;BME280;41779;52.360;31.026;2024-03-02T19:50:11;1032.2;;;7.5;43.7
55858;BME280;41779;52.360;31.026;2024-03-02T19:54:58;1032.2;;;7.5;43.7
55858;BME280;41779;52.360;31.026;2024-03-02T19:59:23;1032.2;;;7.4;43.5
55858;BME280;41779;52.360;31.026;2024-03-02T20:04:23;1032.2;;;7.3;44
55858;BME280;41779;52.360;31.026;2024-03-02T20:09:51;1032.2;;;7.1;45.1
55858;BME280;41779;52.360;31.026;2024-03-02T20:15:01;1032.2;;;7.1;44.9
55858;BME280;41779;52.360;31.026;2024-03-02T20:19:23;1032.2;;;7;44.8
55858;BME280;41779;52.360;31.026;2024-03-02T20:25:01;1032.1;;;6.9;45.7
55858;BME280;41779;52.360;31.026;2024-03-02T20:29:57;1032.1;;;6.8;46.1
55858;BME280;41779;52.360;31.026;2024-03-02T20:35:11;1032;;;6.7;46.1
55858;BME280;41779;52.360;31.026;2024-03-02T20:39:41;1032;;;6.7;46.1
55858;BME280;41779;52.360;31.026;2024-03-02T20:44:43;1032;;;6.5;47.2
55858;BME280;41779;52.360;31.026;2024-03-02T20:49:29;1032;;;6.5;46.8
55858;BME280;41779;52.360;31.026;2024-03-02T20:54:23;1032;;;6.4;47
55858;BME280;41779;52.360;31.026;2024-03-02T20:59:23;1032;;;6.3;47.9
55858;BME280;41779;52.360;31.026;2024-03-02T21:04:23;1032;;;6.3;47.3
55858;BME280;41779;52.360;31.026;2024-03-02T21:09:41;1032;;;6.3;47.5
55858;BME280;41779;52.360;31.026;2024-03-02T21:14:23;1032;;;6.2;48.4
55858;BME280;41779;52.360;31.026;2024-03-02T21:19:57;1032;;;6.1;48.1
55858;BME280;41779;52.360;31.026;2024-03-02T21:25:11;1031.9;;;6;49.3
55858;BME280;41779;52.360;31.026;2024-03-02T21:30:11;1031.9;;;6;48.9
55858;BME280;41779;52.360;31.026;2024-03-02T21:34:58;1031.9;;;6;48.9
55858;BME280;41779;52.360;31.026;2024-03-02T21:39:51;1031.9;;;5.9;49.2
55858;BME280;41779;52.360;31.026;2024-03-02T21:44:51;1031.9;;;5.8;50
55858;BME280;41779;52.360;31.026;2024-03-02T21:50:01;1031.9;;;5.8;49.5
55858;BME280;41779;52.360;31.026;2024-03-02T21:54:41;1031.9;;;5.7;50
55858;BME280;41779;52.360;31.026;2024-03-02T21:59:51;1031.9;;;5.6;50.7
55858;BME280;41779;52.360;31.026;2024-03-02T22:04:43;1031.9;;;5.5;50.2
55858;BME280;41779;52.360;31.026;2024-03-02T22:10:11;1031.9;;;5.5;51.2
55858;BME280;41779;52.360;31.026;2024-03-02T22:14:23;1031.9;;;5.5;51.2
55858;BME280;41779;52.360;31.026;2024-03-02T22:19:54;1031.8;;;5.5;50.6
55858;BME280;41779;52.360;31.026;2024-03-02T22:24:23;1031.9;;;5.4;51.6
55858;BME280;41779;52.360;31.026;2024-03-02T22:29:57;1031.9;;;5.4;51.3
55858;BME280;41779;52.360;31.026;2024-03-02T22:34:29;1031.8;;;5.4;51.4
55858;BME280;41779;52.360;31.026;2024-03-02T22:39:23;1031.9;;;5.3;52.2
55858;BME280;41779;52.360;31.026;2024-03-02T22:44:29;1031.9;;;5.3;51.8
55858;BME280;41779;52.360;31.026;2024-03-02T22:49:29;1031.8;;;5.3;52.1
55858;BME280;41779;52.360;31.026;2024-03-02T22:54:41;1031.9;;;5.3;52.5
55858;BME280;41779;52.360;31.026;2024-03-02T22:59:37;1031.9;;;5.3;51.9
55858;BME280;41779;52.360;31.026;2024-03-02T23:05:09;1031.9;;;5.2;52.7
55858;BME280;41779;52.360;31.026;2024-03-02T23:09:29;1031.9;;;5.2;52.7
55858;BME280;41779;52.360;31.026;2024-03-02T23:15:09;1031.9;;;5.2;52.5
55858;BME280;41779;52.360;31.026;2024-03-02T23:19:55;1031.9;;;5.2;52.5
55858;BME280;41779;52.360;31.026;2024-03-02T23:25:02;1031.9;;;5.2;52.9
55858;BME280;41779;52.360;31.026;2024-03-02T23:29:43;1031.8;;;5.2;52.4
55858;BME280;41779;52.360;31.026;2024-03-02T23:34:49;1031.8;;;5.1;52.8
55858;BME280;41779;52.360;31.026;2024-03-02T23:40:09;1031.7;;;5;52.6
55858;BME280;41779;52.360;31.026;2024-03-02T23:45:09;1031.8;;;4.9;53.4
55858;BME280;41779;52.360;31.026;2024-03-02T23:49:47;1031.8;;;4.9;53.4
55858;BME280;41779;52.360;31.026;2024-03-02T23:55:09;1031.8;;;4.8;53.2
